Main page
METAR-TAF:

METAR-TAF

Airports :

Wanaham

Lifou, New Caledonia

latitude: 20-46S, longitude: 167-14E, elevation: 28 m

METAR: missing

Time: 05:09 (18:09 UTC)

Forecast

The report was made 1 hour and 9 minutes ago, at 17:00 UTC
Forecast valid from 21 at 18 UTC to 22 at 18 UTC
Wind 10 kt from the Southeast
Visibility 10 km or more
Few clouds at a height of 3000 ft
Broken clouds at a height of 4000 ft
Probability 30% :
Temporary
from 21 at 22 UTC to 22 at 03 UTC
rain showers,

TAF: NWWL 211700Z 2118/2218 13010KT 9999 FEW030 BKN040 PROB30 TEMPO 2122/2203 SHRA

Weather observations and forecasts of more than 4000 airports (METAR and TAF reports).

The available stations are represented by yellow and red dots on the map.

Hover mouse over dot to see the name of the station.

Then click to see weather observations and forecasts.

To change the map : click on the green buttons with a black cross to zoom in, on the green button with a dash to zoom out, or on the green arrows for adjacent maps.


METAR-TAF: